Time;durP1;ratioP1;P1;durP2;ratioP2;P2;SDS_P1;SDS_P2;PMS_P1;PMS_P2;Temp;Humidity;BMP_temperature;BMP_pressure;BME280_temperature;BME280_humidity;BME280_pressure;Samples;Min_cycle;Max_cycle;Signal;HPM_P1;HPM_P2
2021/12/01 00:02:13;;;;;;;10.65;3.40;;;;;;;2.56;78.02;99145.72;1753024;80;21029;-76
2021/12/01 00:04:38;;;;;;;5.85;2.35;;;;;;;2.55;78.06;99145.38;1732590;81;21552;-76
2021/12/01 00:07:07;;;;;;;5.17;2.30;;;;;;;2.56;78.09;99149.19;1723561;83;20904;-76
2021/12/01 00:09:32;;;;;;;4.37;2.35;;;;;;;2.56;78.12;99157.56;1754725;81;21030;-76
2021/12/01 00:11:58;;;;;;;3.27;2.00;;;;;;;2.56;78.13;99166.77;1755108;81;21054;-76
2021/12/01 00:14:24;;;;;;;3.05;1.67;;;;;;;2.55;78.14;99169.06;1753146;81;21010;-76
2021/12/01 00:16:50;;;;;;;5.97;2.52;;;;;;;2.53;78.18;99170.02;1754350;81;20903;-76
2021/12/01 00:19:16;;;;;;;6.60;1.60;;;;;;;2.51;78.20;99177.73;1752546;81;20875;-76
2021/12/01 00:21:42;;;;;;;4.30;1.70;;;;;;;2.50;78.24;99178.22;1763747;81;21613;-76
2021/12/01 00:24:08;;;;;;;4.28;1.87;;;;;;;2.50;78.26;99185.28;1764033;81;20974;-76
2021/12/01 00:26:34;;;;;;;6.60;1.70;;;;;;;2.50;78.28;99198.44;1763957;81;21910;-76
2021/12/01 00:29:00;;;;;;;3.37;1.50;;;;;;;2.48;78.35;99200.41;1763880;81;21030;-75
2021/12/01 00:31:26;;;;;;;6.95;1.70;;;;;;;2.47;78.38;99208.78;1763985;81;20907;-76
2021/12/01 00:33:52;;;;;;;4.90;1.80;;;;;;;2.43;78.39;99213.16;1764321;81;20990;-76
2021/12/01 00:36:18;;;;;;;5.67;1.40;;;;;;;2.40;78.44;99226.13;1763683;81;21022;-76
2021/12/01 00:38:44;;;;;;;7.08;3.75;;;;;;;2.37;78.49;99219.84;1763901;81;21108;-76
2021/12/01 00:41:11;;;;;;;8.13;3.05;;;;;;;2.33;78.55;99223.74;1763987;81;21038;-76
2021/12/01 00:43:39;;;;;;;5.83;1.98;;;;;;;2.29;78.62;99231.58;1762158;81;21488;-75
2021/12/01 00:46:19;;;;;;;4.50;1.60;;;;;;;2.28;78.68;99238.32;1777813;80;20983;-75
2021/12/01 00:48:37;;;;;;;8.30;3.47;;;;;;;2.25;78.74;99242.05;1810724;79;21582;-75
2021/12/01 00:51:03;;;;;;;5.60;2.33;;;;;;;2.24;78.79;99235.16;1813819;79;21157;-75
2021/12/01 00:53:30;;;;;;;3.80;1.50;;;;;;;2.25;78.86;99235.98;1813805;79;20955;-75
2021/12/01 00:55:56;;;;;;;4.05;1.35;;;;;;;2.25;78.92;99249.14;1813766;79;21317;-75
2021/12/01 00:58:22;;;;;;;6.42;2.83;;;;;;;2.25;78.97;99244.67;1813655;79;20972;-75
2021/12/01 01:00:49;;;;;;;3.85;2.22;;;;;;;2.26;79.03;99257.34;1795041;79;20880;-75
2021/12/01 01:03:16;;;;;;;6.60;1.80;;;;;;;2.26;79.09;99259.49;1781809;80;21195;-75
2021/12/01 01:05:42;;;;;;;4.33;1.45;;;;;;;2.27;79.14;99262.47;1781702;80;21030;-75
2021/12/01 01:08:08;;;;;;;5.70;2.05;;;;;;;2.27;79.17;99266.42;1781526;80;20920;-75
2021/12/01 01:18:41;;;;;;;3.17;1.47;;;;;;;2.29;79.34;99274.14;1783217;79;20981;-75
2021/12/01 01:21:07;;;;;;;4.80;1.65;;;;;;;2.26;79.39;99277.91;1781902;80;21511;-75
2021/12/01 01:23:33;;;;;;;5.28;1.50;;;;;;;2.25;79.42;99285.95;1782112;80;21160;-75
2021/12/01 01:26:00;;;;;;;3.70;1.50;;;;;;;2.22;79.46;99287.05;1807455;79;21002;-75
2021/12/01 01:28:26;;;;;;;6.40;2.10;;;;;;;2.21;79.50;99285.42;1811121;78;21719;-75
2021/12/01 01:30:53;;;;;;;5.25;2.10;;;;;;;2.20;79.53;99285.06;1781718;80;20884;-75
2021/12/01 01:33:20;;;;;;;24.43;7.92;;;;;;;2.19;79.60;99280.77;1782059;79;21504;-75
2021/12/01 01:35:46;;;;;;;7.00;2.30;;;;;;;2.17;79.63;99280.58;1781669;80;21460;-75
2021/12/01 01:38:12;;;;;;;5.58;2.77;;;;;;;2.15;79.68;99287.28;1781593;80;21312;-75
2021/12/01 01:40:38;;;;;;;6.55;1.82;;;;;;;2.13;79.71;99290.56;1782047;80;21055;-75
2021/12/01 01:43:05;;;;;;;12.75;4.25;;;;;;;2.10;79.77;99290.84;1781577;80;20889;-75
2021/12/01 01:45:31;;;;;;;8.55;3.08;;;;;;;2.10;79.79;99300.05;1787458;80;20984;-75
2021/12/01 01:48:02;;;;;;;6.50;1.77;;;;;;;2.04;79.84;99300.63;1789830;80;20889;-75
2021/12/01 01:50:36;;;;;;;6.30;2.77;;;;;;;1.98;79.89;99295.92;1789978;80;21539;-75
2021/12/01 01:53:10;;;;;;;9.88;3.55;;;;;;;1.91;79.94;99296.15;1789927;80;21078;-75
2021/12/01 01:55:40;;;;;;;11.60;3.37;;;;;;;1.85;80.00;99285.73;1758931;80;21558;-75
2021/12/01 01:58:07;;;;;;;5.58;2.12;;;;;;;1.80;80.09;99293.20;1760052;80;20984;-75
2021/12/01 02:00:39;;;;;;;6.67;2.35;;;;;;;1.77;80.14;99292.65;1789905;80;21000;-75
2021/12/01 02:03:01;;;;;;;11.20;3.75;;;;;;;1.74;80.18;99299.51;1788917;80;21032;-76
2021/12/01 02:05:27;;;;;;;6.80;2.90;;;;;;;1.69;80.25;99301.75;1789405;80;21127;-75
2021/12/01 02:07:54;;;;;;;7.05;2.40;;;;;;;1.65;80.29;99313.50;1789871;80;21009;-75
2021/12/01 02:10:20;;;;;;;2.98;1.92;;;;;;;1.60;80.35;99311.77;1789939;80;21000;-75
2021/12/01 02:12:46;;;;;;;10.03;3.33;;;;;;;1.56;80.41;99319.58;1789987;80;21072;-75
2021/12/01 02:15:12;;;;;;;6.33;2.55;;;;;;;1.54;80.46;99324.16;1790142;79;21075;-75
2021/12/01 02:17:38;;;;;;;5.92;2.62;;;;;;;1.51;80.53;99323.44;1789910;80;21972;-74
2021/12/01 02:20:18;;;;;;;4.80;1.98;;;;;;;1.50;80.58;99320.50;1789993;80;20891;-75
2021/12/01 02:22:44;;;;;;;4.87;1.95;;;;;;;1.50;80.61;99316.55;1790006;80;21071;-75
2021/12/01 02:25:10;;;;;;;7.00;4.10;;;;;;;1.51;80.68;99323.95;1790288;80;20917;-76
2021/12/01 02:27:36;;;;;;;5.62;3.02;;;;;;;1.53;80.76;99323.80;1789934;80;21048;-75
2021/12/01 02:30:03;;;;;;;28.25;6.28;;;;;;;1.54;80.80;99325.47;1790191;80;21160;-75
2021/12/01 02:32:29;;;;;;;15.08;4.83;;;;;;;1.54;80.85;99331.55;1789870;80;21639;-76
2021/12/01 02:34:55;;;;;;;11.83;6.47;;;;;;;1.55;80.91;99335.02;1790655;78;20873;-75
2021/12/01 02:37:21;;;;;;;17.32;9.95;;;;;;;1.54;80.95;99324.16;1790062;80;20881;-76
2021/12/01 02:39:51;;;;;;;9.45;7.62;;;;;;;1.55;80.99;99333.70;1789915;80;21008;-75
2021/12/01 02:42:20;;;;;;;10.10;6.33;;;;;;;1.54;81.03;99329.41;1790138;80;21133;-76
2021/12/01 02:44:46;;;;;;;7.62;2.35;;;;;;;1.55;81.08;99331.08;1789877;80;20992;-75
2021/12/01 02:47:12;;;;;;;4.87;2.95;;;;;;;1.55;81.11;99329.76;1789904;80;21048;-75
2021/12/01 02:49:39;;;;;;;5.83;2.12;;;;;;;1.51;81.15;99330.52;1790055;80;21060;-75
2021/12/01 02:52:05;;;;;;;4.12;2.00;;;;;;;1.48;81.20;99335.55;1790247;80;21001;-75
2021/12/01 02:54:32;;;;;;;3.15;2.15;;;;;;;1.45;81.22;99339.77;1790017;80;21222;-75
2021/12/01 02:56:58;;;;;;;3.02;1.52;;;;;;;1.44;81.26;99332.84;1789860;80;20976;-75
2021/12/01 02:59:25;;;;;;;3.17;1.50;;;;;;;1.43;81.32;99329.06;1790152;80;20933;-75
2021/12/01 03:01:52;;;;;;;4.85;1.52;;;;;;;1.44;81.34;99329.42;1789638;80;21496;-75
2021/12/01 03:04:18;;;;;;;4.05;1.35;;;;;;;1.43;81.34;99327.27;1790040;80;20996;-75
2021/12/01 03:06:45;;;;;;;2.10;1.00;;;;;;;1.41;81.40;99325.25;1759088;80;21165;-75
2021/12/01 03:09:12;;;;;;;3.37;1.50;;;;;;;1.39;81.43;99316.69;1789773;80;20996;-75
2021/12/01 03:11:38;;;;;;;3.67;2.15;;;;;;;1.39;81.45;99315.86;1790046;80;21001;-75
2021/12/01 03:14:14;;;;;;;4.33;1.65;;;;;;;1.37;81.48;99314.67;1789914;80;20975;-75
2021/12/01 03:16:40;;;;;;;6.87;1.85;;;;;;;1.38;81.50;99316.34;1790147;80;21030;-75
2021/12/01 03:19:06;;;;;;;6.08;1.70;;;;;;;1.38;81.53;99312.39;1790011;80;21955;-75
2021/12/01 03:21:37;;;;;;;5.03;2.52;;;;;;;1.40;81.57;99320.98;1790060;80;20978;-75
2021/12/01 03:24:04;;;;;;;4.67;1.60;;;;;;;1.40;81.58;99320.98;1790071;80;21007;-74
2021/12/01 03:26:30;;;;;;;6.28;2.02;;;;;;;1.41;81.60;99316.53;1790098;80;20988;-74
2021/12/01 03:28:57;;;;;;;4.10;1.82;;;;;;;1.40;81.62;99311.80;1789966;80;20995;-75
2021/12/01 03:31:23;;;;;;;6.92;1.82;;;;;;;1.39;81.61;99308.81;1789828;80;21135;-75
2021/12/01 03:33:49;;;;;;;4.90;1.75;;;;;;;1.40;81.65;99305.23;1790086;80;21014;-75
2021/12/01 03:36:15;;;;;;;3.50;1.10;;;;;;;1.40;81.68;99299.97;1789580;80;21511;-75
2021/12/01 03:38:41;;;;;;;3.25;1.40;;;;;;;1.41;81.70;99292.89;1790009;80;21030;-75
2021/12/01 03:41:07;;;;;;;5.75;1.30;;;;;;;1.41;81.71;99291.10;1789994;80;21027;-75
2021/12/01 03:43:33;;;;;;;5.22;1.20;;;;;;;1.41;81.74;99292.89;1789845;80;21082;-75
2021/12/01 03:45:59;;;;;;;5.55;1.27;;;;;;;1.41;81.76;99279.77;1777571;80;20868;-75
2021/12/01 03:48:25;;;;;;;4.53;1.20;;;;;;;1.41;81.75;99277.97;1806227;78;20864;-75
2021/12/01 03:50:52;;;;;;;4.42;1.35;;;;;;;1.42;81.76;99280.11;1781793;80;21084;-75
2021/12/01 03:53:19;;;;;;;5.92;1.80;;;;;;;1.39;81.76;99273.83;1781640;80;20982;-75
2021/12/01 03:55:45;;;;;;;6.12;2.02;;;;;;;1.33;81.78;99275.23;1781861;80;21794;-75
2021/12/01 03:58:11;;;;;;;5.47;2.80;;;;;;;1.30;81.79;99279.42;1781239;80;21478;-75
2021/12/01 04:00:37;;;;;;;13.40;4.45;;;;;;;1.28;81.81;99274.80;1781472;80;20909;-75
2021/12/01 04:03:03;;;;;;;7.92;3.22;;;;;;;1.28;81.84;99269.55;1781472;80;21474;-75
2021/12/01 04:05:30;;;;;;;4.47;1.90;;;;;;;1.30;81.87;99268.92;1781898;80;21004;-75
2021/12/01 04:07:56;;;;;;;6.37;2.10;;;;;;;1.29;81.86;99265.97;1781615;80;21066;-74
2021/12/01 04:10:22;;;;;;;4.62;2.27;;;;;;;1.27;81.87;99267.89;1781575;80;21533;-74
2021/12/01 04:12:48;;;;;;;7.67;2.37;;;;;;;1.27;81.89;99269.68;1781699;80;20985;-74
2021/12/01 04:15:14;;;;;;;5.92;2.05;;;;;;;1.23;81.90;99267.81;1781456;79;21843;-75
2021/12/01 04:20:27;;;;;;;7.15;2.08;;;;;;;1.17;81.88;99273.62;1835970;77;27913;-76
2021/12/01 04:22:53;;;;;;;4.33;1.85;;;;;;;1.09;81.89;99274.79;1746918;81;20889;-76
2021/12/01 04:25:19;;;;;;;6.30;3.05;;;;;;;1.04;81.89;99270.45;1769483;81;21919;-76
2021/12/01 04:27:45;;;;;;;8.10;2.20;;;;;;;0.97;81.90;99262.30;1747533;81;21034;-75
2021/12/01 04:30:13;;;;;;;3.98;2.27;;;;;;;0.89;81.91;99260.84;1747389;81;21022;-75
2021/12/01 04:32:39;;;;;;;7.70;2.05;;;;;;;0.78;81.88;99259.64;1769540;81;21070;-75
2021/12/01 04:35:07;;;;;;;3.72;1.57;;;;;;;0.67;81.89;99259.76;1769659;81;21010;-75
2021/12/01 04:37:34;;;;;;;3.98;1.52;;;;;;;0.60;81.88;99267.02;1746852;82;22016;-76
2021/12/01 04:40:00;;;;;;;3.75;1.60;;;;;;;0.52;81.89;99265.54;1770266;80;21471;-75
2021/12/01 04:42:27;;;;;;;6.10;1.60;;;;;;;0.44;81.89;99264.41;1761606;81;20899;-75
2021/12/01 04:44:52;;;;;;;7.00;2.75;;;;;;;0.39;81.90;99260.05;1760458;81;21054;-75
2021/12/01 04:47:26;;;;;;;9.43;3.25;;;;;;;0.35;81.91;99249.47;1746709;80;20861;-75
2021/12/01 04:49:46;;;;;;;12.45;4.40;;;;;;;0.29;81.90;99243.45;1750335;82;21925;-75
2021/12/01 04:52:12;;;;;;;21.82;8.20;;;;;;;0.25;81.90;99239.44;1751469;82;20892;-75
2021/12/01 04:54:39;;;;;;;30.37;10.45;;;;;;;0.24;81.92;99228.63;1751732;82;20963;-75
2021/12/01 04:57:05;;;;;;;41.02;13.75;;;;;;;0.21;81.94;99227.55;1757466;81;21055;-75
2021/12/01 04:59:31;;;;;;;25.20;8.33;;;;;;;0.17;81.94;99226.19;1761314;81;21058;-75
2021/12/01 05:01:57;;;;;;;8.03;3.05;;;;;;;0.10;81.97;99225.06;1745802;81;21550;-75
2021/12/01 05:04:23;;;;;;;13.03;2.98;;;;;;;0.04;81.98;99222.95;1738995;82;20891;-75
2021/12/01 05:06:50;;;;;;;13.68;3.90;;;;;;;0.00;81.99;99207.17;1739014;82;21042;-75
2021/12/01 05:09:16;;;;;;;11.55;2.90;;;;;;;-0.02;81.96;99205.14;1746993;81;21003;-75
2021/12/01 05:11:42;;;;;;;7.00;2.15;;;;;;;-0.04;81.98;99202.67;1738989;82;20990;-75
2021/12/01 05:14:08;;;;;;;15.23;3.50;;;;;;;-0.05;81.99;99197.08;1739478;82;21317;-75
2021/12/01 05:16:36;;;;;;;8.85;3.65;;;;;;;-0.08;81.99;99194.72;1739075;82;21487;-75
2021/12/01 05:19:02;;;;;;;11.33;4.67;;;;;;;-0.09;81.98;99189.12;1746755;81;21063;-75
2021/12/01 05:21:28;;;;;;;14.47;5.95;;;;;;;-0.09;82.02;99188.29;1738915;82;21018;-75
2021/12/01 05:23:54;;;;;;;11.63;3.15;;;;;;;-0.10;82.02;99198.41;1739111;82;21095;-75
2021/12/01 05:26:20;;;;;;;6.92;2.58;;;;;;;-0.10;82.07;99197.10;1738850;82;21828;-75
2021/12/01 05:28:46;;;;;;;10.75;2.92;;;;;;;-0.11;82.07;99196.77;1738876;82;20981;-75
2021/12/01 05:31:12;;;;;;;8.65;3.45;;;;;;;-0.13;82.10;99201.30;1746980;81;21066;-75
2021/12/01 05:33:39;;;;;;;21.35;6.78;;;;;;;-0.15;82.13;99197.52;1739063;81;21539;-75
2021/12/01 05:36:05;;;;;;;10.03;4.87;;;;;;;-0.17;82.15;99190.73;1752120;81;21039;-75
2021/12/01 05:38:31;;;;;;;16.62;5.60;;;;;;;-0.17;82.16;99194.66;1751102;82;21192;-75
2021/12/01 05:40:57;;;;;;;14.07;6.17;;;;;;;-0.19;82.20;99195.28;1750108;81;20912;-76
2021/12/01 05:43:23;;;;;;;18.90;7.92;;;;;;;-0.22;82.25;99191.15;1758576;81;20982;-75
2021/12/01 05:45:49;;;;;;;27.15;7.83;;;;;;;-0.23;82.26;99185.55;1747935;81;20894;-75
2021/12/01 05:48:15;;;;;;;26.48;7.50;;;;;;;-0.21;82.27;99186.74;1747294;82;21031;-76
2021/12/01 05:50:41;;;;;;;29.87;11.05;;;;;;;-0.20;82.29;99184.45;1747203;82;21138;-75
2021/12/01 05:53:07;;;;;;;29.02;8.63;;;;;;;-0.18;82.32;99182.07;1721321;83;20994;-75
2021/12/01 05:55:33;;;;;;;22.70;7.35;;;;;;;-0.15;82.35;99175.25;1721170;83;20907;-75
2021/12/01 05:57:59;;;;;;;26.90;8.38;;;;;;;-0.12;82.36;99166.29;1721488;83;20895;-75
2021/12/01 06:00:25;;;;;;;26.48;8.48;;;;;;;-0.10;82.39;99173.52;1721139;83;20980;-75
2021/12/01 06:02:52;;;;;;;17.62;4.05;;;;;;;-0.06;82.41;99174.92;1721012;83;21679;-75
2021/12/01 06:05:20;;;;;;;32.10;10.32;;;;;;;-0.04;82.42;99169.91;1721223;83;21536;-75
2021/12/01 06:07:47;;;;;;;32.70;10.63;;;;;;;-0.03;82.45;99160.23;1720588;82;21047;-75
2021/12/01 06:10:14;;;;;;;25.12;7.60;;;;;;;-0.01;82.47;99162.27;1721142;83;20992;-75
2021/12/01 06:12:40;;;;;;;35.90;10.93;;;;;;;0.01;82.51;99157.70;1721189;83;21019;-75
2021/12/01 06:15:08;;;;;;;36.73;13.55;;;;;;;0.01;82.52;99145.91;1721455;83;21805;-75
2021/12/01 06:17:34;;;;;;;27.60;8.83;;;;;;;0.02;82.53;99137.58;1721073;83;21051;-76
2021/12/01 06:20:00;;;;;;;13.55;4.78;;;;;;;0.05;82.55;99134.68;1721021;83;21015;-75
2021/12/01 06:22:26;;;;;;;29.27;10.65;;;;;;;0.04;82.60;99125.98;1721343;83;21491;-75
2021/12/01 06:24:52;;;;;;;19.70;8.18;;;;;;;0.05;82.62;99119.79;1721141;83;20959;-75
2021/12/01 06:27:19;;;;;;;20.12;6.62;;;;;;;0.05;82.64;99112.41;1721398;83;21204;-75
2021/12/01 06:29:45;;;;;;;14.03;4.55;;;;;;;0.05;82.67;99108.00;1721370;83;20995;-75
2021/12/01 06:32:11;;;;;;;24.85;8.90;;;;;;;0.06;82.68;99097.88;1721246;83;20974;-75
2021/12/01 06:34:37;;;;;;;23.60;8.45;;;;;;;0.08;82.70;99094.62;1721195;83;20955;-75
2021/12/01 06:37:03;;;;;;;15.83;5.10;;;;;;;0.08;82.72;99086.76;1721426;83;20998;-75
2021/12/01 06:39:29;;;;;;;15.03;4.00;;;;;;;0.12;82.74;99092.08;1721109;83;21120;-75
2021/12/01 06:41:55;;;;;;;38.83;14.05;;;;;;;0.14;82.76;99095.38;1721445;83;20851;-75
2021/12/01 06:44:23;;;;;;;25.97;7.80;;;;;;;0.17;82.80;99095.13;1721280;83;20978;-75
2021/12/01 06:46:49;;;;;;;13.10;4.42;;;;;;;0.18;82.80;99091.52;1721027;83;21007;-75
2021/12/01 06:49:15;;;;;;;19.12;3.50;;;;;;;0.21;82.85;99092.55;1721327;83;21003;-75
2021/12/01 06:51:41;;;;;;;22.98;7.62;;;;;;;0.22;82.85;99094.22;1721496;83;21135;-75
2021/12/01 06:54:07;;;;;;;28.67;7.62;;;;;;;0.23;82.89;99095.89;1721374;83;21040;-75
2021/12/01 06:56:33;;;;;;;26.33;6.33;;;;;;;0.24;82.91;99081.83;1721123;83;21045;-75
2021/12/01 06:58:59;;;;;;;18.42;4.78;;;;;;;0.29;82.94;99075.67;1721214;83;20919;-75
2021/12/01 07:01:25;;;;;;;23.32;7.53;;;;;;;0.32;82.97;99071.45;1721380;83;21030;-75
2021/12/01 07:03:51;;;;;;;18.98;6.08;;;;;;;0.36;82.98;99071.53;1720977;83;21109;-75
2021/12/01 07:06:17;;;;;;;15.45;4.53;;;;;;;0.39;83.00;99066.00;1721350;83;20971;-75
2021/12/01 07:08:43;;;;;;;18.27;6.17;;;;;;;0.43;83.03;99058.21;1721277;83;20938;-75
2021/12/01 07:11:09;;;;;;;26.23;11.70;;;;;;;0.46;83.06;99061.86;1721213;83;20970;-75
2021/12/01 07:13:35;;;;;;;21.00;6.25;;;;;;;0.53;83.09;99061.33;1721139;83;21042;-75
2021/12/01 07:16:01;;;;;;;20.85;4.62;;;;;;;0.56;83.10;99057.11;1721237;83;21141;-75
2021/12/01 07:18:27;;;;;;;19.77;5.33;;;;;;;0.62;83.14;99057.86;1721195;83;20899;-75
2021/12/01 07:20:53;;;;;;;14.28;4.95;;;;;;;0.65;83.15;99052.33;1721344;81;20971;-75
2021/12/01 07:23:19;;;;;;;24.65;6.28;;;;;;;0.69;83.19;99047.14;1721367;83;20896;-75
2021/12/01 07:25:45;;;;;;;14.55;3.35;;;;;;;0.72;83.21;99032.44;1721543;82;20919;-75
2021/12/01 07:28:11;;;;;;;14.68;4.47;;;;;;;0.75;83.22;99028.21;1721692;83;21500;-75
2021/12/01 07:30:39;;;;;;;17.77;5.70;;;;;;;0.79;83.23;99030.90;1721249;83;20959;-74
2021/12/01 07:33:06;;;;;;;16.73;5.47;;;;;;;0.80;83.27;99026.00;1721865;83;21090;-75
2021/12/01 07:35:32;;;;;;;17.30;4.65;;;;;;;0.83;83.28;99024.41;1721555;83;21238;-75
2021/12/01 07:37:58;;;;;;;11.35;4.10;;;;;;;0.85;83.31;99015.89;1721482;82;21082;-75
2021/12/01 07:40:24;;;;;;;13.65;5.60;;;;;;;0.86;83.34;99008.38;1721439;83;21836;-75
2021/12/01 07:42:51;;;;;;;15.50;6.33;;;;;;;0.91;83.39;99006.16;1721617;83;20911;-75
2021/12/01 07:45:17;;;;;;;13.80;4.75;;;;;;;0.94;83.40;99008.49;1721709;83;21066;-75
2021/12/01 07:47:43;;;;;;;17.98;3.83;;;;;;;0.97;83.43;98995.08;1721187;83;21460;-75
2021/12/01 07:50:09;;;;;;;16.75;5.15;;;;;;;1.00;83.45;98985.60;1721899;82;20900;-75
2021/12/01 07:52:36;;;;;;;18.35;5.95;;;;;;;1.02;83.49;98981.05;1721586;83;21503;-75
2021/12/01 07:55:03;;;;;;;19.23;6.30;;;;;;;1.05;83.51;98975.52;1721639;83;21023;-75
2021/12/01 07:57:29;;;;;;;16.12;4.62;;;;;;;1.09;83.55;98973.42;1721627;83;21010;-75
2021/12/01 07:59:55;;;;;;;15.20;3.65;;;;;;;1.08;83.58;98964.72;1721662;83;20872;-75
2021/12/01 08:02:21;;;;;;;15.90;6.65;;;;;;;1.11;83.61;98971.47;1721651;83;20900;-76
2021/12/01 08:04:47;;;;;;;25.95;6.55;;;;;;;1.14;83.63;98972.00;1721344;83;21797;-75
2021/12/01 08:07:13;;;;;;;23.22;7.10;;;;;;;1.14;83.65;98956.73;1721666;82;21070;-76
2021/12/01 08:09:39;;;;;;;25.20;7.80;;;;;;;1.13;83.69;98952.45;1721153;83;20911;-75
2021/12/01 08:12:07;;;;;;;29.60;11.63;;;;;;;1.13;83.71;98954.59;1721709;83;20967;-75
2021/12/01 08:14:33;;;;;;;33.98;14.40;;;;;;;1.17;83.73;98961.20;1721528;82;21035;-75
2021/12/01 08:16:59;;;;;;;15.85;5.55;;;;;;;1.19;83.76;98952.72;1721779;82;21804;-75
2021/12/01 08:19:25;;;;;;;16.10;3.60;;;;;;;1.23;83.81;98932.25;1721410;81;20962;-74
2021/12/01 08:21:51;;;;;;;23.70;5.70;;;;;;;1.24;83.85;98932.08;1721068;83;20927;-75
2021/12/01 08:24:17;;;;;;;14.83;4.95;;;;;;;1.24;83.87;98925.52;1721483;83;20880;-76
2021/12/01 08:26:43;;;;;;;17.65;5.60;;;;;;;1.25;83.91;98928.49;1721648;83;20987;-75
2021/12/01 08:29:10;;;;;;;14.05;5.10;;;;;;;1.29;83.95;98915.41;1721645;83;21291;-75
2021/12/01 08:31:37;;;;;;;16.35;4.78;;;;;;;1.33;83.97;98905.44;1721523;83;20992;-76
2021/12/01 08:34:03;;;;;;;12.45;4.45;;;;;;;1.36;84.02;98900.72;1721692;83;21645;-75
2021/12/01 08:36:29;;;;;;;24.82;5.80;;;;;;;1.40;84.03;98893.38;1721550;83;21475;-76
2021/12/01 08:38:55;;;;;;;13.13;4.10;;;;;;;1.44;84.06;98890.27;1721358;83;20987;-75
2021/12/01 08:41:21;;;;;;;9.98;3.77;;;;;;;1.49;84.11;98886.73;1721702;83;21155;-75
2021/12/01 08:43:47;;;;;;;11.03;4.12;;;;;;;1.51;84.13;98880.02;1721418;83;20994;-75
2021/12/01 08:46:14;;;;;;;12.70;4.60;;;;;;;1.57;84.17;98874.64;1721954;82;21034;-75
2021/12/01 08:48:40;;;;;;;12.68;4.47;;;;;;;1.60;84.20;98871.71;1721344;83;21003;-75
2021/12/01 08:51:06;;;;;;;14.28;4.58;;;;;;;1.62;84.23;98864.01;1721497;83;21655;-75
2021/12/01 08:53:34;;;;;;;22.98;6.30;;;;;;;1.65;84.28;98858.96;1721419;83;21690;-75
2021/12/01 08:56:00;;;;;;;13.48;3.77;;;;;;;1.71;84.31;98855.72;1721610;82;21011;-75
2021/12/01 08:58:26;;;;;;;13.40;3.85;;;;;;;1.78;84.35;98851.02;1721616;83;21487;-75
2021/12/01 09:00:54;;;;;;;29.52;8.65;;;;;;;1.83;84.38;98845.31;1721535;83;20915;-74
2021/12/01 09:03:20;;;;;;;15.75;4.28;;;;;;;1.86;84.41;98843.70;1721617;83;21015;-74
2021/12/01 09:05:46;;;;;;;16.77;3.80;;;;;;;1.86;84.46;98837.13;1721480;83;21170;-75
2021/12/01 09:08:14;;;;;;;15.18;4.60;;;;;;;1.90;84.49;98829.27;1721619;83;21642;-74
2021/12/01 09:10:40;;;;;;;21.70;4.70;;;;;;;1.96;84.52;98835.22;1721712;83;21015;-75
2021/12/01 09:13:06;;;;;;;13.75;3.22;;;;;;;1.98;84.54;98826.20;1721834;83;20951;-75
2021/12/01 09:15:32;;;;;;;11.85;3.80;;;;;;;1.99;84.57;98825.22;1721789;82;20915;-75
2021/12/01 09:17:58;;;;;;;12.18;4.00;;;;;;;2.01;84.62;98817.16;1721955;83;21096;-75
2021/12/01 09:20:25;;;;;;;9.93;3.52;;;;;;;2.03;84.66;98811.77;1725490;82;21625;-75
2021/12/01 09:22:51;;;;;;;17.35;5.47;;;;;;;2.06;84.68;98804.87;1720678;82;21490;-74
2021/12/01 09:25:17;;;;;;;23.85;7.97;;;;;;;2.11;84.72;98806.05;1725728;82;20874;-77
2021/12/01 09:27:44;;;;;;;18.73;5.70;;;;;;;2.18;84.75;98803.13;1738082;82;21058;-75
2021/12/01 09:30:12;;;;;;;18.92;5.72;;;;;;;2.20;84.77;98794.62;1740144;82;21042;-75
2021/12/01 09:32:38;;;;;;;14.47;4.35;;;;;;;2.25;84.81;98796.27;1742221;81;21524;-75
2021/12/01 09:35:06;;;;;;;26.02;11.75;;;;;;;2.27;84.85;98793.02;1734400;81;20915;-75
2021/12/01 09:37:32;;;;;;;13.68;5.70;;;;;;;2.33;84.88;98790.23;1736903;82;21027;-78
2021/12/01 09:39:58;;;;;;;24.60;8.93;;;;;;;2.35;84.89;98790.42;1731049;82;21500;-78
2021/12/01 09:42:24;;;;;;;42.67;15.95;;;;;;;2.36;84.92;98784.16;1752716;81;21136;-75
2021/12/01 09:44:51;;;;;;;16.57;5.15;;;;;;;2.39;84.94;98773.32;1749717;81;21006;-75
2021/12/01 09:47:20;;;;;;;15.40;5.80;;;;;;;2.40;84.96;98761.00;1753286;80;21028;-75
2021/12/01 09:49:47;;;;;;;14.58;5.00;;;;;;;2.42;85.01;98761.20;1723349;82;21555;-76
2021/12/01 09:52:12;;;;;;;12.80;4.87;;;;;;;2.43;85.04;98753.61;1740069;81;21640;-76
2021/12/01 09:54:39;;;;;;;16.15;5.05;;;;;;;2.44;85.06;98751.33;1736681;81;21090;-76
2021/12/01 09:57:07;;;;;;;18.10;5.83;;;;;;;2.46;85.07;98742.77;1717188;83;21135;-75
2021/12/01 09:59:33;;;;;;;13.05;4.90;;;;;;;2.51;85.11;98740.50;1725879;83;21554;-75
2021/12/01 10:01:59;;;;;;;18.73;5.50;;;;;;;2.55;85.14;98728.34;1717806;82;21001;-76
2021/12/01 10:04:25;;;;;;;11.22;4.55;;;;;;;2.58;85.17;98722.27;1740338;81;21101;-75
2021/12/01 10:06:54;;;;;;;12.58;4.50;;;;;;;2.61;85.19;98717.16;1737236;81;21506;-75
2021/12/01 10:09:21;;;;;;;12.67;5.73;;;;;;;2.63;85.22;98703.37;1693715;83;21646;-75
2021/12/01 10:11:47;;;;;;;15.88;5.75;;;;;;;2.53;85.24;98681.95;1715376;83;21857;-76
2021/12/01 10:14:20;;;;;;;12.00;4.40;;;;;;;2.68;85.26;98691.85;1743677;81;20884;-75
2021/12/01 10:16:47;;;;;;;12.63;3.90;;;;;;;2.70;85.28;98688.58;1771845;81;21016;-75
2021/12/01 10:19:15;;;;;;;16.05;5.92;;;;;;;2.70;85.32;98678.05;1706088;80;21086;-75
2021/12/01 10:21:48;;;;;;;18.82;8.25;;;;;;;2.72;85.34;98674.27;1724237;82;21103;-76
2021/12/01 10:24:23;;;;;;;20.70;10.60;;;;;;;2.76;85.37;98670.81;1751540;80;21078;-77
2021/12/01 10:26:57;;;;;;;18.65;8.60;;;;;;;2.78;85.39;98653.07;1731869;81;21015;-77
2021/12/01 10:29:30;;;;;;;33.75;16.70;;;;;;;2.81;85.40;98656.69;1722609;82;21032;-75
2021/12/01 10:32:19;;;;;;;21.45;9.43;;;;;;;2.83;85.42;98652.07;1643460;87;21030;-75
2021/12/01 10:34:50;;;;;;;19.52;11.63;;;;;;;2.85;85.43;98648.80;1643989;87;21608;-75
2021/12/01 10:37:29;;;;;;;13.43;8.25;;;;;;;2.83;85.47;98645.48;1643655;87;21564;-75
2021/12/01 10:40:15;;;;;;;17.02;9.30;;;;;;;2.82;85.51;98634.63;1643980;87;21082;-75
2021/12/01 10:43:00;;;;;;;17.12;8.25;;;;;;;2.81;85.52;98638.27;1642963;87;21089;-75
2021/12/01 10:45:35;;;;;;;20.20;10.13;;;;;;;2.80;85.56;98635.30;1615044;88;21155;-75
2021/12/01 10:48:03;;;;;;;18.35;8.25;;;;;;;2.81;85.57;98630.37;1638202;87;21574;-75
2021/12/01 10:50:32;;;;;;;15.25;7.50;;;;;;;2.83;85.60;98623.12;1616583;87;21077;-75
2021/12/01 10:53:13;;;;;;;37.63;21.25;;;;;;;2.83;85.60;98619.17;1624544;87;21060;-76
2021/12/01 10:55:44;;;;;;;18.98;8.63;;;;;;;2.86;85.64;98617.52;1628532;87;21034;-76
2021/12/01 10:58:10;;;;;;;23.87;10.48;;;;;;;2.88;85.65;98599.77;1623761;87;21230;-76
2021/12/01 11:00:43;;;;;;;27.07;13.00;;;;;;;2.89;85.69;98598.76;1637735;86;21632;-76
2021/12/01 11:03:21;;;;;;;27.35;16.48;;;;;;;2.92;85.73;98586.61;1636933;85;21043;-76
2021/12/01 11:05:50;;;;;;;18.95;9.58;;;;;;;2.95;85.73;98591.53;1637403;85;21540;-76
2021/12/01 11:08:29;;;;;;;18.85;11.12;;;;;;;2.96;85.74;98581.31;1667524;86;21034;-76
2021/12/01 11:11:13;;;;;;;33.67;18.00;;;;;;;3.01;85.76;98584.28;1651628;86;21138;-76
2021/12/01 11:13:45;;;;;;;27.73;13.88;;;;;;;3.05;85.78;98582.97;1667320;86;21077;-76
2021/12/01 11:16:13;;;;;;;50.85;23.62;;;;;;;3.11;85.80;98573.56;1662747;86;21095;-76
2021/12/01 11:18:41;;;;;;;35.63;15.43;;;;;;;3.13;85.84;98564.49;1659656;85;21096;-75
2021/12/01 11:21:11;;;;;;;71.50;30.05;;;;;;;3.15;85.86;98554.63;1653760;86;21090;-76
2021/12/01 11:23:46;;;;;;;49.40;18.07;;;;;;;3.18;85.88;98549.52;1665446;86;21126;-76
2021/12/01 11:26:19;;;;;;;31.35;12.75;;;;;;;3.20;85.91;98549.66;1672049;85;21725;-76
2021/12/01 11:28:51;;;;;;;34.53;16.42;;;;;;;3.23;85.92;98539.31;1674244;85;21058;-76
2021/12/01 11:31:22;;;;;;;38.10;16.07;;;;;;;3.26;85.94;98539.80;1668555;85;21058;-76
2021/12/01 11:33:49;;;;;;;33.08;12.40;;;;;;;3.28;85.96;98529.90;1714795;83;21507;-76
2021/12/01 11:36:20;;;;;;;33.58;14.25;;;;;;;3.31;85.97;98521.65;1689054;83;21094;-76
2021/12/01 11:38:51;;;;;;;52.78;20.00;;;;;;;3.32;86.01;98519.35;1689527;83;21558;-76
2021/12/01 11:41:17;;;;;;;51.37;19.70;;;;;;;3.35;86.02;98508.47;1693123;84;21483;-76
2021/12/01 11:43:43;;;;;;;46.05;15.95;;;;;;;3.38;86.05;98501.54;1709268;83;21591;-76
2021/12/01 11:46:09;;;;;;;25.43;10.82;;;;;;;3.43;86.07;98496.59;1696762;83;21605;-76